sensor_id;sensor_type;location;lat;lon;timestamp;pressure;altitude;pressure_sealevel;temperature
33267;BMP180;19638;49.080;11.896;2023-07-22T00:03:36;96280.00;;;14.90
33267;BMP180;19638;49.080;11.896;2023-07-22T00:07:45;96288.00;;;14.80
33267;BMP180;19638;49.080;11.896;2023-07-22T00:11:51;96287.00;;;14.80
33267;BMP180;19638;49.080;11.896;2023-07-22T00:15:54;96287.00;;;14.80
33267;BMP180;19638;49.080;11.896;2023-07-22T00:19:58;96282.00;;;14.70
33267;BMP180;19638;49.080;11.896;2023-07-22T00:24:11;96285.00;;;14.60
33267;BMP180;19638;49.080;11.896;2023-07-22T00:28:14;96278.00;;;14.50
33267;BMP180;19638;49.080;11.896;2023-07-22T00:32:19;96276.00;;;14.40
33267;BMP180;19638;49.080;11.896;2023-07-22T00:36:23;96270.00;;;14.30
33267;BMP180;19638;49.080;11.896;2023-07-22T00:40:32;96259.00;;;14.20
33267;BMP180;19638;49.080;11.896;2023-07-22T00:44:40;96257.00;;;14.10
33267;BMP180;19638;49.080;11.896;2023-07-22T00:48:43;96255.00;;;14.00
33267;BMP180;19638;49.080;11.896;2023-07-22T00:52:51;96242.00;;;13.90
33267;BMP180;19638;49.080;11.896;2023-07-22T00:56:56;96248.00;;;13.90
33267;BMP180;19638;49.080;11.896;2023-07-22T01:01:00;96243.00;;;13.90
33267;BMP180;19638;49.080;11.896;2023-07-22T01:05:05;96242.00;;;13.80
33267;BMP180;19638;49.080;11.896;2023-07-22T01:09:12;96248.00;;;13.70
33267;BMP180;19638;49.080;11.896;2023-07-22T01:13:16;96247.00;;;13.60
33267;BMP180;19638;49.080;11.896;2023-07-22T01:17:20;96245.00;;;13.50
33267;BMP180;19638;49.080;11.896;2023-07-22T01:21:34;96236.00;;;13.50
33267;BMP180;19638;49.080;11.896;2023-07-22T01:25:43;96231.00;;;13.50
33267;BMP180;19638;49.080;11.896;2023-07-22T01:29:46;96235.00;;;13.50
33267;BMP180;19638;49.080;11.896;2023-07-22T01:33:51;96220.00;;;13.50
33267;BMP180;19638;49.080;11.896;2023-07-22T01:37:55;96233.00;;;13.50
33267;BMP180;19638;49.080;11.896;2023-07-22T01:41:59;96238.00;;;13.60
33267;BMP180;19638;49.080;11.896;2023-07-22T01:46:02;96240.00;;;13.60
33267;BMP180;19638;49.080;11.896;2023-07-22T01:50:06;96244.00;;;13.60
33267;BMP180;19638;49.080;11.896;2023-07-22T01:54:11;96240.00;;;13.60
33267;BMP180;19638;49.080;11.896;2023-07-22T01:58:18;96245.00;;;13.60
33267;BMP180;19638;49.080;11.896;2023-07-22T02:02:21;96248.00;;;13.60
33267;BMP180;19638;49.080;11.896;2023-07-22T02:06:25;96246.00;;;13.70
33267;BMP180;19638;49.080;11.896;2023-07-22T02:10:31;96238.00;;;13.70
33267;BMP180;19638;49.080;11.896;2023-07-22T02:14:40;96241.00;;;13.70
33267;BMP180;19638;49.080;11.896;2023-07-22T02:18:44;96244.00;;;13.70
33267;BMP180;19638;49.080;11.896;2023-07-22T02:22:48;96258.00;;;13.70
33267;BMP180;19638;49.080;11.896;2023-07-22T02:26:52;96257.00;;;13.70
33267;BMP180;19638;49.080;11.896;2023-07-22T02:31:01;96259.00;;;13.60
33267;BMP180;19638;49.080;11.896;2023-07-22T02:35:11;96255.00;;;13.60
33267;BMP180;19638;49.080;11.896;2023-07-22T02:39:20;96256.00;;;13.50
33267;BMP180;19638;49.080;11.896;2023-07-22T02:43:23;96260.00;;;13.40
33267;BMP180;19638;49.080;11.896;2023-07-22T02:47:32;96254.00;;;13.40
33267;BMP180;19638;49.080;11.896;2023-07-22T02:51:36;96253.00;;;13.30
33267;BMP180;19638;49.080;11.896;2023-07-22T02:55:39;96257.00;;;13.30
33267;BMP180;19638;49.080;11.896;2023-07-22T02:59:45;96253.00;;;13.20
33267;BMP180;19638;49.080;11.896;2023-07-22T03:03:51;96252.00;;;13.30
33267;BMP180;19638;49.080;11.896;2023-07-22T03:07:55;96263.00;;;13.30
33267;BMP180;19638;49.080;11.896;2023-07-22T03:12:02;96261.00;;;13.40
33267;BMP180;19638;49.080;11.896;2023-07-22T03:16:06;96254.00;;;13.50
33267;BMP180;19638;49.080;11.896;2023-07-22T03:20:12;96263.00;;;13.50
33267;BMP180;19638;49.080;11.896;2023-07-22T03:24:18;96263.00;;;13.60
33267;BMP180;19638;49.080;11.896;2023-07-22T03:28:21;96257.00;;;13.60
33267;BMP180;19638;49.080;11.896;2023-07-22T03:32:24;96264.00;;;13.60
33267;BMP180;19638;49.080;11.896;2023-07-22T03:36:29;96273.00;;;13.70
33267;BMP180;19638;49.080;11.896;2023-07-22T03:40:34;96279.00;;;13.70
33267;BMP180;19638;49.080;11.896;2023-07-22T03:44:37;96281.00;;;13.70
33267;BMP180;19638;49.080;11.896;2023-07-22T03:48:42;96280.00;;;13.80
33267;BMP180;19638;49.080;11.896;2023-07-22T03:52:46;96291.00;;;13.70
33267;BMP180;19638;49.080;11.896;2023-07-22T03:56:49;96284.00;;;13.70
33267;BMP180;19638;49.080;11.896;2023-07-22T04:00:56;96294.00;;;13.80
33267;BMP180;19638;49.080;11.896;2023-07-22T04:05:03;96294.00;;;13.80
33267;BMP180;19638;49.080;11.896;2023-07-22T04:09:08;96293.00;;;13.80
33267;BMP180;19638;49.080;11.896;2023-07-22T04:13:19;96293.00;;;14.00
33267;BMP180;19638;49.080;11.896;2023-07-22T04:17:25;96298.00;;;14.00
33267;BMP180;19638;49.080;11.896;2023-07-22T04:21:31;96295.00;;;14.10
33267;BMP180;19638;49.080;11.896;2023-07-22T04:25:40;96304.00;;;14.10
33267;BMP180;19638;49.080;11.896;2023-07-22T04:29:43;96302.00;;;14.30
33267;BMP180;19638;49.080;11.896;2023-07-22T04:33:49;96301.00;;;14.40
33267;BMP180;19638;49.080;11.896;2023-07-22T04:37:52;96317.00;;;14.60
33267;BMP180;19638;49.080;11.896;2023-07-22T04:41:57;96321.00;;;14.80
33267;BMP180;19638;49.080;11.896;2023-07-22T04:46:00;96324.00;;;14.90
33267;BMP180;19638;49.080;11.896;2023-07-22T04:50:04;96322.00;;;15.10
33267;BMP180;19638;49.080;11.896;2023-07-22T04:54:11;96326.00;;;15.30
33267;BMP180;19638;49.080;11.896;2023-07-22T04:58:18;96327.00;;;15.50
33267;BMP180;19638;49.080;11.896;2023-07-22T05:02:21;96326.00;;;15.80
33267;BMP180;19638;49.080;11.896;2023-07-22T05:06:28;96326.00;;;16.10
33267;BMP180;19638;49.080;11.896;2023-07-22T05:10:36;96334.00;;;16.50
33267;BMP180;19638;49.080;11.896;2023-07-22T05:14:41;96337.00;;;16.70
33267;BMP180;19638;49.080;11.896;2023-07-22T05:18:45;96335.00;;;17.00
33267;BMP180;19638;49.080;11.896;2023-07-22T05:22:48;96336.00;;;17.40
33267;BMP180;19638;49.080;11.896;2023-07-22T05:26:53;96332.00;;;17.70
33267;BMP180;19638;49.080;11.896;2023-07-22T05:31:11;96333.00;;;18.10
33267;BMP180;19638;49.080;11.896;2023-07-22T05:35:17;96330.00;;;18.40
33267;BMP180;19638;49.080;11.896;2023-07-22T05:39:21;96335.00;;;18.50
33267;BMP180;19638;49.080;11.896;2023-07-22T05:43:24;96353.00;;;18.50
33267;BMP180;19638;49.080;11.896;2023-07-22T05:47:29;96343.00;;;18.60
33267;BMP180;19638;49.080;11.896;2023-07-22T05:51:32;96344.00;;;18.70
33267;BMP180;19638;49.080;11.896;2023-07-22T05:55:36;96340.00;;;18.80
33267;BMP180;19638;49.080;11.896;2023-07-22T05:59:39;96338.00;;;19.00
33267;BMP180;19638;49.080;11.896;2023-07-22T06:03:48;96342.00;;;19.00
33267;BMP180;19638;49.080;11.896;2023-07-22T06:07:52;96345.00;;;19.10
33267;BMP180;19638;49.080;11.896;2023-07-22T06:11:56;96350.00;;;19.30
33267;BMP180;19638;49.080;11.896;2023-07-22T06:16:03;96351.00;;;19.70
33267;BMP180;19638;49.080;11.896;2023-07-22T06:20:12;96349.00;;;20.10
33267;BMP180;19638;49.080;11.896;2023-07-22T06:24:17;96357.00;;;20.50
33267;BMP180;19638;49.080;11.896;2023-07-22T06:28:20;96359.00;;;20.80
33267;BMP180;19638;49.080;11.896;2023-07-22T06:32:25;96365.00;;;21.10
33267;BMP180;19638;49.080;11.896;2023-07-22T06:36:29;96363.00;;;21.30
33267;BMP180;19638;49.080;11.896;2023-07-22T06:40:34;96366.00;;;21.80
33267;BMP180;19638;49.080;11.896;2023-07-22T06:44:37;96378.00;;;22.50
33267;BMP180;19638;49.080;11.896;2023-07-22T06:48:43;96376.00;;;23.00
33267;BMP180;19638;49.080;11.896;2023-07-22T06:52:50;96374.00;;;23.40
33267;BMP180;19638;49.080;11.896;2023-07-22T06:56:53;96383.00;;;23.60
33267;BMP180;19638;49.080;11.896;2023-07-22T07:00:56;96373.00;;;23.80
33267;BMP180;19638;49.080;11.896;2023-07-22T07:05:06;96371.00;;;23.90
33267;BMP180;19638;49.080;11.896;2023-07-22T07:09:10;96386.00;;;24.50
33267;BMP180;19638;49.080;11.896;2023-07-22T07:13:16;96386.00;;;24.80
33267;BMP180;19638;49.080;11.896;2023-07-22T07:17:19;96386.00;;;25.10
33267;BMP180;19638;49.080;11.896;2023-07-22T07:21:23;96387.00;;;25.30
33267;BMP180;19638;49.080;11.896;2023-07-22T07:25:30;96388.00;;;25.30
33267;BMP180;19638;49.080;11.896;2023-07-22T07:29:39;96393.00;;;25.70
33267;BMP180;19638;49.080;11.896;2023-07-22T07:33:54;96397.00;;;25.90
33267;BMP180;19638;49.080;11.896;2023-07-22T07:37:57;96395.00;;;26.00
33267;BMP180;19638;49.080;11.896;2023-07-22T07:42:06;96402.00;;;26.40
33267;BMP180;19638;49.080;11.896;2023-07-22T07:46:17;96404.00;;;26.50
33267;BMP180;19638;49.080;11.896;2023-07-22T07:50:22;96410.00;;;26.80
33267;BMP180;19638;49.080;11.896;2023-07-22T07:54:25;96407.00;;;27.00
33267;BMP180;19638;49.080;11.896;2023-07-22T07:58:31;96416.00;;;27.10
33267;BMP180;19638;49.080;11.896;2023-07-22T08:02:39;96419.00;;;27.20
33267;BMP180;19638;49.080;11.896;2023-07-22T08:06:48;96417.00;;;27.30
33267;BMP180;19638;49.080;11.896;2023-07-22T08:10:59;96413.00;;;27.80
33267;BMP180;19638;49.080;11.896;2023-07-22T08:15:05;96418.00;;;28.00
33267;BMP180;19638;49.080;11.896;2023-07-22T08:19:13;96424.00;;;28.30
33267;BMP180;19638;49.080;11.896;2023-07-22T08:23:19;96426.00;;;28.00
33267;BMP180;19638;49.080;11.896;2023-07-22T08:27:22;96434.00;;;27.40
33267;BMP180;19638;49.080;11.896;2023-07-22T08:31:27;96426.00;;;27.60
33267;BMP180;19638;49.080;11.896;2023-07-22T08:35:34;96436.00;;;28.30
33267;BMP180;19638;49.080;11.896;2023-07-22T08:39:41;96421.00;;;27.90
33267;BMP180;19638;49.080;11.896;2023-07-22T08:43:45;96429.00;;;27.60
33267;BMP180;19638;49.080;11.896;2023-07-22T08:47:54;96421.00;;;28.10
33267;BMP180;19638;49.080;11.896;2023-07-22T08:52:02;96432.00;;;27.50
33267;BMP180;19638;49.080;11.896;2023-07-22T08:56:05;96424.00;;;27.00
33267;BMP180;19638;49.080;11.896;2023-07-22T09:00:11;96431.00;;;27.60
33267;BMP180;19638;49.080;11.896;2023-07-22T09:04:17;96427.00;;;28.10
33267;BMP180;19638;49.080;11.896;2023-07-22T09:08:22;96425.00;;;27.70
33267;BMP180;19638;49.080;11.896;2023-07-22T09:12:26;96422.00;;;27.40
33267;BMP180;19638;49.080;11.896;2023-07-22T09:16:32;96432.00;;;27.60
33267;BMP180;19638;49.080;11.896;2023-07-22T09:20:38;96421.00;;;28.40
33267;BMP180;19638;49.080;11.896;2023-07-22T09:24:43;96418.00;;;28.60
33267;BMP180;19638;49.080;11.896;2023-07-22T09:28:52;96423.00;;;28.70
33267;BMP180;19638;49.080;11.896;2023-07-22T09:32:57;96410.00;;;29.00
33267;BMP180;19638;49.080;11.896;2023-07-22T09:37:03;96413.00;;;29.30
33267;BMP180;19638;49.080;11.896;2023-07-22T09:41:10;96427.00;;;29.80
33267;BMP180;19638;49.080;11.896;2023-07-22T09:45:15;96408.00;;;30.00
33267;BMP180;19638;49.080;11.896;2023-07-22T09:49:22;96406.00;;;30.20
33267;BMP180;19638;49.080;11.896;2023-07-22T09:53:29;96401.00;;;30.30
33267;BMP180;19638;49.080;11.896;2023-07-22T09:57:35;96407.00;;;29.80
33267;BMP180;19638;49.080;11.896;2023-07-22T10:01:43;96404.00;;;28.90
33267;BMP180;19638;49.080;11.896;2023-07-22T10:05:51;96401.00;;;28.10
33267;BMP180;19638;49.080;11.896;2023-07-22T10:09:57;96389.00;;;27.90
33267;BMP180;19638;49.080;11.896;2023-07-22T10:14:01;96397.00;;;27.70
33267;BMP180;19638;49.080;11.896;2023-07-22T10:18:05;96395.00;;;27.60
33267;BMP180;19638;49.080;11.896;2023-07-22T10:22:11;96389.00;;;27.30
33267;BMP180;19638;49.080;11.896;2023-07-22T10:26:19;96388.00;;;27.20
33267;BMP180;19638;49.080;11.896;2023-07-22T10:30:43;96394.00;;;27.20
33267;BMP180;19638;49.080;11.896;2023-07-22T10:34:48;96390.00;;;27.30
33267;BMP180;19638;49.080;11.896;2023-07-22T10:38:55;96386.00;;;28.60
33267;BMP180;19638;49.080;11.896;2023-07-22T10:43:06;96384.00;;;29.40
33267;BMP180;19638;49.080;11.896;2023-07-22T10:47:09;96390.00;;;29.20
33267;BMP180;19638;49.080;11.896;2023-07-22T10:51:14;96381.00;;;29.00
33267;BMP180;19638;49.080;11.896;2023-07-22T10:55:19;96375.00;;;28.30
33267;BMP180;19638;49.080;11.896;2023-07-22T10:59:27;96381.00;;;28.00
33267;BMP180;19638;49.080;11.896;2023-07-22T11:03:32;96373.00;;;28.00
33267;BMP180;19638;49.080;11.896;2023-07-22T11:07:44;96373.00;;;27.90
33267;BMP180;19638;49.080;11.896;2023-07-22T11:11:49;96368.00;;;27.90
33267;BMP180;19638;49.080;11.896;2023-07-22T11:15:59;96358.00;;;27.60
33267;BMP180;19638;49.080;11.896;2023-07-22T11:20:04;96366.00;;;27.70
33267;BMP180;19638;49.080;11.896;2023-07-22T11:24:12;96355.00;;;28.70
33267;BMP180;19638;49.080;11.896;2023-07-22T11:28:16;96353.00;;;29.80
33267;BMP180;19638;49.080;11.896;2023-07-22T11:32:21;96352.00;;;30.20
33267;BMP180;19638;49.080;11.896;2023-07-22T11:36:29;96346.00;;;30.70
33267;BMP180;19638;49.080;11.896;2023-07-22T11:40:33;96351.00;;;31.40
33267;BMP180;19638;49.080;11.896;2023-07-22T11:44:36;96348.00;;;31.70
33267;BMP180;19638;49.080;11.896;2023-07-22T11:48:52;96341.00;;;31.40
33267;BMP180;19638;49.080;11.896;2023-07-22T11:52:58;96333.00;;;32.70
33267;BMP180;19638;49.080;11.896;2023-07-22T11:57:10;96333.00;;;33.30
33267;BMP180;19638;49.080;11.896;2023-07-22T12:01:14;96328.00;;;32.80
33267;BMP180;19638;49.080;11.896;2023-07-22T12:05:24;96325.00;;;32.10
33267;BMP180;19638;49.080;11.896;2023-07-22T12:09:29;96312.00;;;31.70
33267;BMP180;19638;49.080;11.896;2023-07-22T12:13:41;96309.00;;;30.70
33267;BMP180;19638;49.080;11.896;2023-07-22T12:17:51;96315.00;;;30.70
33267;BMP180;19638;49.080;11.896;2023-07-22T12:21:57;96314.00;;;30.90
33267;BMP180;19638;49.080;11.896;2023-07-22T12:26:01;96302.00;;;30.20
33267;BMP180;19638;49.080;11.896;2023-07-22T12:30:07;96298.00;;;29.80
33267;BMP180;19638;49.080;11.896;2023-07-22T12:34:11;96290.00;;;30.10
33267;BMP180;19638;49.080;11.896;2023-07-22T12:38:16;96288.00;;;29.70
33267;BMP180;19638;49.080;11.896;2023-07-22T12:42:19;96281.00;;;29.00
33267;BMP180;19638;49.080;11.896;2023-07-22T12:46:22;96287.00;;;28.90
33267;BMP180;19638;49.080;11.896;2023-07-22T12:50:32;96276.00;;;29.10
33267;BMP180;19638;49.080;11.896;2023-07-22T12:54:40;96276.00;;;28.90
33267;BMP180;19638;49.080;11.896;2023-07-22T12:58:43;96276.00;;;28.90
33267;BMP180;19638;49.080;11.896;2023-07-22T13:02:48;96263.00;;;29.20
33267;BMP180;19638;49.080;11.896;2023-07-22T13:06:53;96258.00;;;29.70
33267;BMP180;19638;49.080;11.896;2023-07-22T13:11:01;96256.00;;;29.70
33267;BMP180;19638;49.080;11.896;2023-07-22T13:15:10;96250.00;;;29.50
33267;BMP180;19638;49.080;11.896;2023-07-22T13:19:13;96247.00;;;29.40
33267;BMP180;19638;49.080;11.896;2023-07-22T13:23:18;96247.00;;;29.80
33267;BMP180;19638;49.080;11.896;2023-07-22T13:27:23;96249.00;;;30.10
33267;BMP180;19638;49.080;11.896;2023-07-22T13:31:28;96243.00;;;30.90
33267;BMP180;19638;49.080;11.896;2023-07-22T13:35:31;96252.00;;;31.80
33267;BMP180;19638;49.080;11.896;2023-07-22T13:39:34;96249.00;;;32.30
33267;BMP180;19638;49.080;11.896;2023-07-22T13:43:40;96246.00;;;33.20
33267;BMP180;19638;49.080;11.896;2023-07-22T13:47:43;96246.00;;;34.10
33267;BMP180;19638;49.080;11.896;2023-07-22T13:51:48;96239.00;;;34.20
33267;BMP180;19638;49.080;11.896;2023-07-22T13:55:52;96236.00;;;33.90
33267;BMP180;19638;49.080;11.896;2023-07-22T13:59:57;96242.00;;;33.10
33267;BMP180;19638;49.080;11.896;2023-07-22T14:04:00;96240.00;;;31.50
33267;BMP180;19638;49.080;11.896;2023-07-22T14:08:03;96240.00;;;31.00
33267;BMP180;19638;49.080;11.896;2023-07-22T14:12:11;96237.00;;;30.70
33267;BMP180;19638;49.080;11.896;2023-07-22T14:16:16;96237.00;;;30.20
33267;BMP180;19638;49.080;11.896;2023-07-22T14:20:24;96235.00;;;29.60
33267;BMP180;19638;49.080;11.896;2023-07-22T14:24:27;96223.00;;;29.80
33267;BMP180;19638;49.080;11.896;2023-07-22T14:28:44;96227.00;;;29.80
33267;BMP180;19638;49.080;11.896;2023-07-22T14:32:51;96221.00;;;30.20
33267;BMP180;19638;49.080;11.896;2023-07-22T14:36:55;96219.00;;;29.70
33267;BMP180;19638;49.080;11.896;2023-07-22T14:40:59;96217.00;;;30.30
33267;BMP180;19638;49.080;11.896;2023-07-22T14:45:04;96232.00;;;30.70
33267;BMP180;19638;49.080;11.896;2023-07-22T14:49:09;96234.00;;;31.00
33267;BMP180;19638;49.080;11.896;2023-07-22T14:53:15;96227.00;;;31.30
33267;BMP180;19638;49.080;11.896;2023-07-22T14:57:18;96217.00;;;31.00
33267;BMP180;19638;49.080;11.896;2023-07-22T15:01:22;96222.00;;;30.70
33267;BMP180;19638;49.080;11.896;2023-07-22T15:05:26;96227.00;;;30.90
33267;BMP180;19638;49.080;11.896;2023-07-22T15:09:30;96228.00;;;32.00
33267;BMP180;19638;49.080;11.896;2023-07-22T15:13:33;96221.00;;;31.80
33267;BMP180;19638;49.080;11.896;2023-07-22T15:17:40;96215.00;;;31.60
33267;BMP180;19638;49.080;11.896;2023-07-22T15:21:45;96208.00;;;31.40
33267;BMP180;19638;49.080;11.896;2023-07-22T15:25:48;96204.00;;;31.60
33267;BMP180;19638;49.080;11.896;2023-07-22T15:29:52;96198.00;;;32.00
33267;BMP180;19638;49.080;11.896;2023-07-22T15:33:55;96206.00;;;32.00
33267;BMP180;19638;49.080;11.896;2023-07-22T15:37:59;96191.00;;;32.10
33267;BMP180;19638;49.080;11.896;2023-07-22T15:42:03;96194.00;;;31.90
33267;BMP180;19638;49.080;11.896;2023-07-22T15:46:06;96194.00;;;32.00
33267;BMP180;19638;49.080;11.896;2023-07-22T15:50:09;96188.00;;;32.50
33267;BMP180;19638;49.080;11.896;2023-07-22T15:54:19;96186.00;;;32.50
33267;BMP180;19638;49.080;11.896;2023-07-22T15:58:27;96183.00;;;32.50
33267;BMP180;19638;49.080;11.896;2023-07-22T16:02:31;96181.00;;;32.90
33267;BMP180;19638;49.080;11.896;2023-07-22T16:06:36;96172.00;;;32.90
33267;BMP180;19638;49.080;11.896;2023-07-22T16:10:41;96174.00;;;32.50
33267;BMP180;19638;49.080;11.896;2023-07-22T16:14:47;96180.00;;;32.20
33267;BMP180;19638;49.080;11.896;2023-07-22T16:18:51;96173.00;;;31.80
33267;BMP180;19638;49.080;11.896;2023-07-22T16:22:55;96187.00;;;31.70
33267;BMP180;19638;49.080;11.896;2023-07-22T16:27:02;96186.00;;;31.40
33267;BMP180;19638;49.080;11.896;2023-07-22T16:31:08;96186.00;;;31.30
33267;BMP180;19638;49.080;11.896;2023-07-22T16:35:16;96183.00;;;31.40
33267;BMP180;19638;49.080;11.896;2023-07-22T16:39:21;96175.00;;;32.10
33267;BMP180;19638;49.080;11.896;2023-07-22T16:43:27;96180.00;;;32.30
33267;BMP180;19638;49.080;11.896;2023-07-22T16:47:31;96175.00;;;32.60
33267;BMP180;19638;49.080;11.896;2023-07-22T16:51:37;96181.00;;;32.60
33267;BMP180;19638;49.080;11.896;2023-07-22T16:55:40;96184.00;;;32.30
33267;BMP180;19638;49.080;11.896;2023-07-22T16:59:46;96177.00;;;32.00
33267;BMP180;19638;49.080;11.896;2023-07-22T17:03:49;96179.00;;;31.30
33267;BMP180;19638;49.080;11.896;2023-07-22T17:07:56;96177.00;;;30.50
33267;BMP180;19638;49.080;11.896;2023-07-22T17:12:02;96176.00;;;29.90
33267;BMP180;19638;49.080;11.896;2023-07-22T17:16:09;96177.00;;;29.40
33267;BMP180;19638;49.080;11.896;2023-07-22T17:20:14;96176.00;;;29.00
33267;BMP180;19638;49.080;11.896;2023-07-22T17:24:19;96171.00;;;28.80
33267;BMP180;19638;49.080;11.896;2023-07-22T17:28:23;96177.00;;;28.70
33267;BMP180;19638;49.080;11.896;2023-07-22T17:32:30;96170.00;;;28.90
33267;BMP180;19638;49.080;11.896;2023-07-22T17:36:37;96170.00;;;28.90
33267;BMP180;19638;49.080;11.896;2023-07-22T17:40:42;96175.00;;;28.70
33267;BMP180;19638;49.080;11.896;2023-07-22T17:44:49;96177.00;;;28.40
33267;BMP180;19638;49.080;11.896;2023-07-22T17:48:56;96168.00;;;28.30
33267;BMP180;19638;49.080;11.896;2023-07-22T17:52:59;96172.00;;;28.10
33267;BMP180;19638;49.080;11.896;2023-07-22T17:57:04;96171.00;;;27.90
33267;BMP180;19638;49.080;11.896;2023-07-22T18:01:10;96172.00;;;27.80
33267;BMP180;19638;49.080;11.896;2023-07-22T18:05:16;96168.00;;;27.60
33267;BMP180;19638;49.080;11.896;2023-07-22T18:09:20;96171.00;;;27.50
33267;BMP180;19638;49.080;11.896;2023-07-22T18:13:23;96173.00;;;27.40
33267;BMP180;19638;49.080;11.896;2023-07-22T18:17:26;96170.00;;;27.20
33267;BMP180;19638;49.080;11.896;2023-07-22T18:21:31;96169.00;;;27.10
33267;BMP180;19638;49.080;11.896;2023-07-22T18:25:37;96165.00;;;26.70
33267;BMP180;19638;49.080;11.896;2023-07-22T18:29:40;96176.00;;;26.30
33267;BMP180;19638;49.080;11.896;2023-07-22T18:33:52;96184.00;;;25.80
33267;BMP180;19638;49.080;11.896;2023-07-22T18:37:56;96180.00;;;25.50
33267;BMP180;19638;49.080;11.896;2023-07-22T18:41:59;96183.00;;;25.10
33267;BMP180;19638;49.080;11.896;2023-07-22T18:46:13;96180.00;;;24.80
33267;BMP180;19638;49.080;11.896;2023-07-22T18:50:16;96183.00;;;24.50
33267;BMP180;19638;49.080;11.896;2023-07-22T18:54:28;96178.00;;;24.20
33267;BMP180;19638;49.080;11.896;2023-07-22T18:58:33;96178.00;;;23.90
33267;BMP180;19638;49.080;11.896;2023-07-22T19:02:36;96187.00;;;23.50
33267;BMP180;19638;49.080;11.896;2023-07-22T19:06:41;96175.00;;;23.10
33267;BMP180;19638;49.080;11.896;2023-07-22T19:10:48;96182.00;;;22.80
33267;BMP180;19638;49.080;11.896;2023-07-22T19:14:52;96188.00;;;22.50
33267;BMP180;19638;49.080;11.896;2023-07-22T19:18:55;96194.00;;;22.10
33267;BMP180;19638;49.080;11.896;2023-07-22T19:22:59;96199.00;;;21.90
33267;BMP180;19638;49.080;11.896;2023-07-22T19:27:11;96195.00;;;21.60
33267;BMP180;19638;49.080;11.896;2023-07-22T19:31:16;96200.00;;;21.40
33267;BMP180;19638;49.080;11.896;2023-07-22T19:35:22;96205.00;;;21.10
33267;BMP180;19638;49.080;11.896;2023-07-22T19:39:25;96201.00;;;20.80
33267;BMP180;19638;49.080;11.896;2023-07-22T19:43:30;96204.00;;;20.60
33267;BMP180;19638;49.080;11.896;2023-07-22T19:47:34;96204.00;;;20.30
33267;BMP180;19638;49.080;11.896;2023-07-22T19:51:40;96212.00;;;20.00
33267;BMP180;19638;49.080;11.896;2023-07-22T19:55:43;96204.00;;;19.80
33267;BMP180;19638;49.080;11.896;2023-07-22T19:59:48;96205.00;;;19.50
33267;BMP180;19638;49.080;11.896;2023-07-22T20:03:51;96200.00;;;19.40
33267;BMP180;19638;49.080;11.896;2023-07-22T20:07:56;96207.00;;;19.20
33267;BMP180;19638;49.080;11.896;2023-07-22T20:12:01;96210.00;;;19.10
33267;BMP180;19638;49.080;11.896;2023-07-22T20:16:08;96212.00;;;18.90
33267;BMP180;19638;49.080;11.896;2023-07-22T20:20:11;96210.00;;;18.90
33267;BMP180;19638;49.080;11.896;2023-07-22T20:24:17;96214.00;;;18.80
33267;BMP180;19638;49.080;11.896;2023-07-22T20:28:23;96213.00;;;18.70
33267;BMP180;19638;49.080;11.896;2023-07-22T20:32:30;96213.00;;;18.50
33267;BMP180;19638;49.080;11.896;2023-07-22T20:36:33;96209.00;;;18.30
33267;BMP180;19638;49.080;11.896;2023-07-22T20:40:39;96229.00;;;18.10
33267;BMP180;19638;49.080;11.896;2023-07-22T20:44:42;96223.00;;;17.90
33267;BMP180;19638;49.080;11.896;2023-07-22T20:48:49;96229.00;;;17.80
33267;BMP180;19638;49.080;11.896;2023-07-22T20:52:55;96231.00;;;17.80
33267;BMP180;19638;49.080;11.896;2023-07-22T20:56:59;96230.00;;;17.60
33267;BMP180;19638;49.080;11.896;2023-07-22T21:01:03;96228.00;;;17.50
33267;BMP180;19638;49.080;11.896;2023-07-22T21:05:09;96231.00;;;17.30
33267;BMP180;19638;49.080;11.896;2023-07-22T21:09:15;96239.00;;;17.30
33267;BMP180;19638;49.080;11.896;2023-07-22T21:13:21;96240.00;;;17.40
33267;BMP180;19638;49.080;11.896;2023-07-22T21:17:28;96236.00;;;17.50
33267;BMP180;19638;49.080;11.896;2023-07-22T21:21:35;96235.00;;;17.40
33267;BMP180;19638;49.080;11.896;2023-07-22T21:25:39;96223.00;;;17.10
33267;BMP180;19638;49.080;11.896;2023-07-22T21:29:47;96236.00;;;17.00
33267;BMP180;19638;49.080;11.896;2023-07-22T21:33:50;96237.00;;;16.80
33267;BMP180;19638;49.080;11.896;2023-07-22T21:38:15;96241.00;;;16.80
33267;BMP180;19638;49.080;11.896;2023-07-22T21:42:21;96243.00;;;16.70
33267;BMP180;19638;49.080;11.896;2023-07-22T21:46:29;96241.00;;;16.80
33267;BMP180;19638;49.080;11.896;2023-07-22T21:50:34;96247.00;;;16.80
33267;BMP180;19638;49.080;11.896;2023-07-22T21:54:46;96250.00;;;16.70
33267;BMP180;19638;49.080;11.896;2023-07-22T21:58:50;96250.00;;;16.60
33267;BMP180;19638;49.080;11.896;2023-07-22T22:02:56;96251.00;;;16.50
33267;BMP180;19638;49.080;11.896;2023-07-22T22:07:02;96251.00;;;16.50
33267;BMP180;19638;49.080;11.896;2023-07-22T22:11:06;96250.00;;;16.40
33267;BMP180;19638;49.080;11.896;2023-07-22T22:15:14;96260.00;;;16.30
33267;BMP180;19638;49.080;11.896;2023-07-22T22:19:25;96257.00;;;16.30
33267;BMP180;19638;49.080;11.896;2023-07-22T22:23:29;96264.00;;;16.30
33267;BMP180;19638;49.080;11.896;2023-07-22T22:27:34;96265.00;;;16.30
33267;BMP180;19638;49.080;11.896;2023-07-22T22:31:38;96255.00;;;16.20
33267;BMP180;19638;49.080;11.896;2023-07-22T22:35:42;96252.00;;;16.20
33267;BMP180;19638;49.080;11.896;2023-07-22T22:39:45;96261.00;;;16.20
33267;BMP180;19638;49.080;11.896;2023-07-22T22:43:50;96251.00;;;16.10
33267;BMP180;19638;49.080;11.896;2023-07-22T22:47:53;96251.00;;;16.10
33267;BMP180;19638;49.080;11.896;2023-07-22T22:51:56;96249.00;;;16.00
33267;BMP180;19638;49.080;11.896;2023-07-22T22:56:03;96254.00;;;15.90
33267;BMP180;19638;49.080;11.896;2023-07-22T23:00:13;96247.00;;;15.80
33267;BMP180;19638;49.080;11.896;2023-07-22T23:04:25;96249.00;;;15.70
33267;BMP180;19638;49.080;11.896;2023-07-22T23:08:28;96248.00;;;15.60
33267;BMP180;19638;49.080;11.896;2023-07-22T23:12:38;96251.00;;;15.60
33267;BMP180;19638;49.080;11.896;2023-07-22T23:16:43;96251.00;;;15.50